Time;durP1;ratioP1;P1;durP2;ratioP2;P2;SDS_P1;SDS_P2;PMS_P1;PMS_P2;Temp;Humidity;BMP_temperature;BMP_pressure;BME280_temperature;BME280_humidity;BME280_pressure;Samples;Min_cycle;Max_cycle;Signal;HPM_P1;HPM_P2
2022/12/02 00:02:23;;;;;;;;;;;;;;;;;;5035369;28;19898;-81
2022/12/02 00:04:49;;;;;;;;;;;;;;;;;;5032852;28;19918;-81
2022/12/02 00:07:15;;;;;;;;;;;;;;;;;;5035874;28;19909;-82
2022/12/02 00:09:41;;;;;;;;;;;;;;;;;;5036892;28;19909;-81
2022/12/02 00:12:07;;;;;;;;;;;;;;;;;;5053922;28;19997;-82
2022/12/02 00:14:33;;;;;;;;;;;;;;;;;;5035094;28;20412;-81
2022/12/02 00:16:59;;;;;;;;;;;;;;;;;;5035366;28;20288;-81
2022/12/02 00:19:25;;;;;;;;;;;;;;;;;;5037638;28;19916;-81
2022/12/02 00:21:51;;;;;;;;;;;;;;;;;;5035323;28;19916;-81
2022/12/02 00:24:17;;;;;;;;;;;;;;;;;;5031434;28;19916;-81
2022/12/02 00:26:43;;;;;;;;;;;;;;;;;;5036911;28;19909;-81
2022/12/02 00:29:09;;;;;;;;;;;;;;;;;;5036479;28;19909;-81
2022/12/02 00:31:35;;;;;;;;;;;;;;;;;;5031120;28;19931;-81
2022/12/02 00:34:00;;;;;;;;;;;;;;;;;;5032924;28;19909;-80
2022/12/02 00:36:28;;;;;;;;;;;;;;;;;;5028620;28;19964;-81
2022/12/02 00:38:54;;;;;;;;;;;;;;;;;;5027946;28;19941;-81
2022/12/02 00:41:20;;;;;;;;;;;;;;;;;;5027281;28;20354;-81
2022/12/02 00:46:47;;;;;;;;;;;;;;;;;;4982615;28;19917;-81
2022/12/02 00:49:14;;;;;;;;;;;;;;;;;;5036102;28;19937;-81
2022/12/02 00:51:40;;;;;;;;;;;;;;;;;;5033236;28;19968;-81
2022/12/02 00:54:06;;;;;;;;;;;;;;;;;;5030199;28;19964;-81
2022/12/02 00:56:32;;;;;;;;;;;;;;;;;;5032254;28;19909;-81
2022/12/02 00:58:58;;;;;;;;;;;;;;;;;;5034180;28;19913;-81
2022/12/02 01:01:24;;;;;;;;;;;;;;;;;;5030899;28;19973;-81
2022/12/02 01:03:50;;;;;;;;;;;;;;;;;;5033124;28;19940;-81
2022/12/02 01:06:16;;;;;;;;;;;;;;;;;;5031881;28;19913;-81
2022/12/02 01:08:42;;;;;;;;;;;;;;;;;;5033063;28;19932;-81
2022/12/02 01:11:08;;;;;;;;;;;;;;;;;;5037112;28;19909;-81
2022/12/02 01:13:34;;;;;;;;;;;;;;;;;;5037428;28;20560;-81
2022/12/02 01:16:00;;;;;;;;;;;;;;;;;;5037097;28;19936;-81
2022/12/02 01:18:26;;;;;;;;;;;;;;;;;;5036865;28;19913;-81
2022/12/02 01:20:55;;;;;;;;;;;;;;;;;;5035294;28;19909;-81
2022/12/02 01:23:22;;;;;;;;;;;;;;;;;;5037888;28;19932;-81
2022/12/02 01:25:48;;;;;;;;;;;;;;;;;;5039186;28;19909;-81
2022/12/02 01:28:14;;;;;;;;;;;;;;;;;;5040486;28;19910;-81
2022/12/02 01:30:42;;;;;;;;;;;;;;;;;;5038496;28;19915;-81
2022/12/02 01:33:08;;;;;;;;;;;;;;;;;;5058406;28;19909;-81
2022/12/02 01:35:34;;;;;;;;;;;;;;;;;;5039001;28;19907;-81
2022/12/02 01:38:00;;;;;;;;;;;;;;;;;;5041253;28;19904;-81
2022/12/02 01:40:30;;;;;;;;;;;;;;;;;;5056378;28;19941;-81
2022/12/02 01:42:56;;;;;;;;;;;;;;;;;;5038358;28;19936;-81
2022/12/02 01:45:22;;;;;;;;;;;;;;;;;;5057698;28;19925;-81
2022/12/02 01:47:54;;;;;;;;;;;;;;;;;;5038955;28;19909;-81
2022/12/02 01:50:20;;;;;;;;;;;;;;;;;;5055968;28;19933;-81
2022/12/02 01:52:46;;;;;;;;;;;;;;;;;;5039701;28;19924;-81
2022/12/02 01:55:13;;;;;;;;;;;;;;;;;;5036733;28;19909;-81
2022/12/02 01:57:41;;;;;;;;;;;;;;;;;;5040438;28;19913;-81
2022/12/02 02:00:07;;;;;;;;;;;;;;;;;;5037701;28;19978;-81
2022/12/02 02:02:34;;;;;;;;;;;;;;;;;;5038729;28;19963;-81
2022/12/02 02:05:00;;;;;;;;;;;;;;;;;;5053130;28;19981;-81
2022/12/02 02:07:26;;;;;;;;;;;;;;;;;;5054048;28;19916;-81
2022/12/02 02:09:53;;;;;;;;;;;;;;;;;;5040574;28;19898;-81
2022/12/02 02:12:19;;;;;;;;;;;;;;;;;;5059048;28;19893;-79
2022/12/02 02:14:45;;;;;;;;;;;;;;;;;;5041630;28;19913;-80
2022/12/02 02:17:12;;;;;;;;;;;;;;;;;;5041270;28;19917;-81
2022/12/02 02:19:39;;;;;;;;;;;;;;;;;;5052724;28;19937;-81
2022/12/02 02:22:08;;;;;;;;;;;;;;;;;;5055715;28;19953;-81
2022/12/02 02:24:35;;;;;;;;;;;;;;;;;;5059173;28;19913;-83
2022/12/02 02:27:01;;;;;;;;;;;;;;;;;;5056058;28;19909;-81
2022/12/02 02:29:27;;;;;;;;;;;;;;;;;;5056992;28;19917;-81
2022/12/02 02:31:53;;;;;;;;;;;;;;;;;;5039077;28;19940;-81
2022/12/02 02:34:19;;;;;;;;;;;;;;;;;;5040235;28;19916;-82
2022/12/02 02:36:45;;;;;;;;;;;;;;;;;;5038270;28;19913;-81
2022/12/02 02:39:11;;;;;;;;;;;;;;;;;;5058344;28;19898;-81
2022/12/02 02:41:37;;;;;;;;;;;;;;;;;;5037874;28;19909;-81
2022/12/02 02:44:03;;;;;;;;;;;;;;;;;;5040480;28;19937;-81
2022/12/02 02:46:31;;;;;;;;;;;;;;;;;;5039981;28;19904;-81
2022/12/02 02:48:58;;;;;;;;;;;;;;;;;;5057473;28;20007;-81
2022/12/02 02:51:25;;;;;;;;;;;;;;;;;;5040704;28;19916;-81
2022/12/02 02:53:51;;;;;;;;;;;;;;;;;;5038542;28;19910;-81
2022/12/02 02:56:17;;;;;;;;;;;;;;;;;;5041055;28;19961;-81
2022/12/02 02:58:43;;;;;;;;;;;;;;;;;;5055986;28;19920;-81
2022/12/02 03:01:10;;;;;;;;;;;;;;;;;;5040437;28;20313;-82
2022/12/02 03:03:36;;;;;;;;;;;;;;;;;;5038318;28;19945;-81
2022/12/02 03:06:02;;;;;;;;;;;;;;;;;;5037771;28;19893;-82
2022/12/02 03:08:30;;;;;;;;;;;;;;;;;;5037439;28;19909;-81
2022/12/02 03:10:56;;;;;;;;;;;;;;;;;;5038585;28;19913;-82
2022/12/02 03:13:22;;;;;;;;;;;;;;;;;;5056114;28;19976;-81
2022/12/02 03:15:48;;;;;;;;;;;;;;;;;;5037767;28;19964;-82
2022/12/02 03:18:16;;;;;;;;;;;;;;;;;;5037529;28;19964;-81
2022/12/02 03:20:42;;;;;;;;;;;;;;;;;;5038521;28;19893;-82
2022/12/02 03:23:09;;;;;;;;;;;;;;;;;;5057972;28;19916;-81
2022/12/02 03:25:36;;;;;;;;;;;;;;;;;;5039083;28;19903;-81
2022/12/02 03:28:02;;;;;;;;;;;;;;;;;;5055744;28;19909;-82
2022/12/02 03:30:28;;;;;;;;;;;;;;;;;;5037078;28;19909;-82
2022/12/02 03:32:54;;;;;;;;;;;;;;;;;;5037978;28;19973;-81
2022/12/02 03:35:20;;;;;;;;;;;;;;;;;;5037615;28;19916;-82
2022/12/02 03:37:46;;;;;;;;;;;;;;;;;;5057636;28;19920;-81
2022/12/02 03:40:12;;;;;;;;;;;;;;;;;;5037872;28;19909;-81
2022/12/02 03:42:38;;;;;;;;;;;;;;;;;;5038936;28;19920;-81
2022/12/02 03:45:05;;;;;;;;;;;;;;;;;;5036533;28;19916;-81
2022/12/02 03:47:32;;;;;;;;;;;;;;;;;;5037278;28;19909;-81
2022/12/02 03:49:58;;;;;;;;;;;;;;;;;;5040366;28;19909;-81
2022/12/02 03:52:24;;;;;;;;;;;;;;;;;;5053421;28;19917;-81
2022/12/02 03:54:50;;;;;;;;;;;;;;;;;;5038650;28;19917;-81
2022/12/02 03:57:16;;;;;;;;;;;;;;;;;;5035266;28;19940;-81
2022/12/02 03:59:43;;;;;;;;;;;;;;;;;;5055490;28;19993;-81
2022/12/02 04:02:09;;;;;;;;;;;;;;;;;;5051420;28;20289;-81
2022/12/02 04:04:35;;;;;;;;;;;;;;;;;;5037014;28;19955;-81
2022/12/02 04:07:01;;;;;;;;;;;;;;;;;;5052733;28;19909;-81
2022/12/02 04:09:27;;;;;;;;;;;;;;;;;;5036423;28;19909;-81
2022/12/02 04:11:54;;;;;;;;;;;;;;;;;;5054222;28;19913;-81
2022/12/02 04:14:21;;;;;;;;;;;;;;;;;;5038231;28;19956;-82
2022/12/02 04:16:47;;;;;;;;;;;;;;;;;;5035872;28;20000;-81
2022/12/02 04:19:14;;;;;;;;;;;;;;;;;;5035623;28;19913;-82
2022/12/02 04:21:40;;;;;;;;;;;;;;;;;;5039382;28;19965;-82
2022/12/02 04:24:06;;;;;;;;;;;;;;;;;;5037608;28;19916;-81
2022/12/02 04:26:32;;;;;;;;;;;;;;;;;;5039760;28;19909;-82
2022/12/02 04:28:58;;;;;;;;;;;;;;;;;;5054078;28;19909;-81
2022/12/02 04:31:24;;;;;;;;;;;;;;;;;;5036459;28;19921;-81
2022/12/02 04:33:50;;;;;;;;;;;;;;;;;;5037759;28;19909;-82
2022/12/02 04:36:16;;;;;;;;;;;;;;;;;;5037732;28;19944;-81
2022/12/02 04:38:42;;;;;;;;;;;;;;;;;;5034992;28;19913;-81
2022/12/02 04:41:08;;;;;;;;;;;;;;;;;;5034143;28;20007;-81
2022/12/02 04:43:34;;;;;;;;;;;;;;;;;;5031876;28;19921;-81
2022/12/02 04:46:00;;;;;;;;;;;;;;;;;;5048038;28;19936;-81
2022/12/02 04:48:26;;;;;;;;;;;;;;;;;;5037141;28;19909;-81
2022/12/02 04:50:52;;;;;;;;;;;;;;;;;;5040590;28;19955;-81
2022/12/02 04:53:18;;;;;;;;;;;;;;;;;;5058602;22;19925;-85
2022/12/02 04:55:45;;;;;;;;;;;;;;;;;;5040683;28;19912;-83
2022/12/02 04:58:11;;;;;;;;;;;;;;;;;;5061785;28;19905;-84
2022/12/02 05:00:37;;;;;;;;;;;;;;;;;;5064231;28;19920;-84
2022/12/02 05:03:03;;;;;;;;;;;;;;;;;;5046911;28;19988;-83
2022/12/02 05:05:29;;;;;;;;;;;;;;;;;;5039356;28;19913;-83
2022/12/02 05:07:55;;;;;;;;;;;;;;;;;;5039495;28;19920;-83
2022/12/02 05:10:20;;;;;;;;;;;;;;;;;;5039848;28;19908;-86
2022/12/02 05:12:46;;;;;;;;;;;;;;;;;;5039238;28;19916;-83
2022/12/02 05:15:13;;;;;;;;;;;;;;;;;;5039430;28;19956;-83
2022/12/02 05:17:39;;;;;;;;;;;;;;;;;;5040180;28;19931;-83
2022/12/02 05:20:05;;;;;;;;;;;;;;;;;;5039756;28;19909;-83
2022/12/02 05:22:31;;;;;;;;;;;;;;;;;;5040215;28;19909;-83
2022/12/02 05:24:57;;;;;;;;;;;;;;;;;;5040147;28;20285;-83
2022/12/02 05:27:22;;;;;;;;;;;;;;;;;;5039920;28;19920;-85
2022/12/02 05:29:48;;;;;;;;;;;;;;;;;;5040113;28;19975;-83
2022/12/02 05:32:14;;;;;;;;;;;;;;;;;;5039497;28;19948;-83
2022/12/02 05:34:40;;;;;;;;;;;;;;;;;;5039026;28;19908;-83
2022/12/02 05:37:06;;;;;;;;;;;;;;;;;;5039056;28;19909;-84
2022/12/02 05:39:32;;;;;;;;;;;;;;;;;;5039621;28;19917;-83
2022/12/02 05:41:58;;;;;;;;;;;;;;;;;;5039623;28;19909;-83
2022/12/02 05:44:24;;;;;;;;;;;;;;;;;;5039013;28;20354;-86
2022/12/02 05:46:50;;;;;;;;;;;;;;;;;;5038737;28;19909;-83
2022/12/02 05:49:16;;;;;;;;;;;;;;;;;;5039732;28;19953;-84
2022/12/02 05:51:41;;;;;;;;;;;;;;;;;;5038550;28;19913;-83
2022/12/02 05:54:07;;;;;;;;;;;;;;;;;;5038503;28;20308;-83
2022/12/02 05:56:34;;;;;;;;;;;;;;;;;;5038024;28;19909;-83
2022/12/02 05:59:00;;;;;;;;;;;;;;;;;;5042782;28;19945;-83
2022/12/02 06:01:26;;;;;;;;;;;;;;;;;;5039192;28;19911;-84
2022/12/02 06:03:52;;;;;;;;;;;;;;;;;;5038089;28;20288;-82
2022/12/02 06:06:17;;;;;;;;;;;;;;;;;;5038726;28;20365;-79
2022/12/02 06:08:43;;;;;;;;;;;;;;;;;;5036904;28;19983;-77
2022/12/02 06:11:09;;;;;;;;;;;;;;;;;;5057128;28;20447;-78
2022/12/02 06:13:35;;;;;;;;;;;;;;;;;;5054788;28;19955;-79
2022/12/02 06:16:01;;;;;;;;;;;;;;;;;;5036790;28;19909;-80
2022/12/02 06:18:27;;;;;;;;;;;;;;;;;;5036966;28;19913;-83
2022/12/02 06:20:53;;;;;;;;;;;;;;;;;;5037175;28;20399;-82
2022/12/02 06:23:19;;;;;;;;;;;;;;;;;;5055260;28;19995;-82
2022/12/02 06:25:45;;;;;;;;;;;;;;;;;;5037550;28;20381;-83
2022/12/02 06:28:11;;;;;;;;;;;;;;;;;;5021441;28;19913;-83
2022/12/02 06:30:37;;;;;;;;;;;;;;;;;;5017475;28;19909;-82
2022/12/02 06:33:03;;;;;;;;;;;;;;;;;;5017896;28;20332;-82
2022/12/02 06:35:29;;;;;;;;;;;;;;;;;;5017590;28;19909;-82
2022/12/02 06:37:55;;;;;;;;;;;;;;;;;;5017375;28;19917;-82
2022/12/02 06:40:21;;;;;;;;;;;;;;;;;;5017705;28;20389;-82
2022/12/02 06:42:46;;;;;;;;;;;;;;;;;;5017293;28;20015;-83
2022/12/02 06:45:12;;;;;;;;;;;;;;;;;;5017230;28;19979;-83
2022/12/02 06:47:38;;;;;;;;;;;;;;;;;;5017119;28;19909;-84
2022/12/02 06:50:04;;;;;;;;;;;;;;;;;;5017232;28;19909;-82
2022/12/02 06:52:30;;;;;;;;;;;;;;;;;;5016854;28;19925;-82
2022/12/02 06:54:57;;;;;;;;;;;;;;;;;;5017207;28;19909;-82
2022/12/02 06:57:23;;;;;;;;;;;;;;;;;;5016890;28;20022;-81
2022/12/02 06:59:49;;;;;;;;;;;;;;;;;;5017065;28;19992;-82
2022/12/02 07:02:14;;;;;;;;;;;;;;;;;;5017855;28;19909;-81
2022/12/02 07:04:40;;;;;;;;;;;;;;;;;;5017048;28;20382;-81
2022/12/02 07:07:06;;;;;;;;;;;;;;;;;;5016793;28;19916;-81
2022/12/02 07:09:32;;;;;;;;;;;;;;;;;;5016134;28;19979;-82
2022/12/02 07:11:58;;;;;;;;;;;;;;;;;;5034983;28;19909;-82
2022/12/02 07:14:24;;;;;;;;;;;;;;;;;;5017151;28;19936;-83
2022/12/02 07:16:50;;;;;;;;;;;;;;;;;;5016806;28;19909;-82
2022/12/02 07:19:16;;;;;;;;;;;;;;;;;;5016511;28;20293;-83
2022/12/02 07:21:42;;;;;;;;;;;;;;;;;;5016425;28;20121;-82
2022/12/02 07:24:07;;;;;;;;;;;;;;;;;;5016670;28;19909;-84
2022/12/02 07:26:33;;;;;;;;;;;;;;;;;;5016831;28;19960;-82
2022/12/02 07:29:00;;;;;;;;;;;;;;;;;;5016539;28;20271;-82
2022/12/02 07:31:26;;;;;;;;;;;;;;;;;;5016582;28;20454;-84
2022/12/02 07:33:52;;;;;;;;;;;;;;;;;;5016612;28;20021;-83
2022/12/02 07:36:17;;;;;;;;;;;;;;;;;;5033979;28;20004;-82
2022/12/02 07:38:43;;;;;;;;;;;;;;;;;;5016201;28;19917;-82
2022/12/02 07:41:09;;;;;;;;;;;;;;;;;;5016020;28;19950;-82
2022/12/02 07:43:35;;;;;;;;;;;;;;;;;;5016799;28;20428;-82
2022/12/02 07:46:01;;;;;;;;;;;;;;;;;;5015980;28;19909;-82
2022/12/02 07:48:27;;;;;;;;;;;;;;;;;;5016288;28;20336;-82
2022/12/02 07:50:53;;;;;;;;;;;;;;;;;;5016054;28;19960;-82
2022/12/02 07:53:19;;;;;;;;;;;;;;;;;;5015380;28;19917;-82
2022/12/02 07:55:44;;;;;;;;;;;;;;;;;;5015844;28;19910;-82
2022/12/02 07:58:10;;;;;;;;;;;;;;;;;;5016327;28;20008;-83
2022/12/02 08:00:36;;;;;;;;;;;;;;;;;;5016146;28;20328;-82
2022/12/02 08:03:02;;;;;;;;;;;;;;;;;;5020969;28;19901;-82
2022/12/02 08:05:28;;;;;;;;;;;;;;;;;;5041322;28;19920;-81
2022/12/02 08:07:54;;;;;;;;;;;;;;;;;;5038147;28;19937;-82
2022/12/02 08:10:20;;;;;;;;;;;;;;;;;;5034385;28;19909;-81
2022/12/02 08:12:46;;;;;;;;;;;;;;;;;;5016191;28;20332;-81
2022/12/02 08:15:12;;;;;;;;;;;;;;;;;;5016173;28;20016;-81
2022/12/02 08:17:37;;;;;;;;;;;;;;;;;;5016101;28;19944;-82
2022/12/02 08:20:03;;;;;;;;;;;;;;;;;;5016124;28;20392;-82
2022/12/02 08:22:29;;;;;;;;;;;;;;;;;;5016629;28;19959;-80
2022/12/02 08:24:55;;;;;;;;;;;;;;;;;;5016508;28;20079;-81
2022/12/02 08:27:21;;;;;;;;;;;;;;;;;;5016505;28;19909;-82
2022/12/02 08:29:48;;;;;;;;;;;;;;;;;;5034981;28;19924;-81
2022/12/02 08:32:14;;;;;;;;;;;;;;;;;;5016206;28;20399;-85
2022/12/02 08:34:40;;;;;;;;;;;;;;;;;;5015673;28;19909;-81
2022/12/02 08:37:06;;;;;;;;;;;;;;;;;;5016026;28;20003;-81
2022/12/02 08:39:32;;;;;;;;;;;;;;;;;;5016144;28;20333;-81
2022/12/02 08:41:58;;;;;;;;;;;;;;;;;;5015502;28;19909;-81
2022/12/02 08:44:24;;;;;;;;;;;;;;;;;;5015375;28;19913;-80
2022/12/02 08:46:49;;;;;;;;;;;;;;;;;;5015457;28;20369;-82
2022/12/02 08:49:15;;;;;;;;;;;;;;;;;;5015538;28;19909;-80
2022/12/02 08:51:41;;;;;;;;;;;;;;;;;;5015597;28;20360;-81
2022/12/02 08:54:07;;;;;;;;;;;;;;;;;;5033548;28;19962;-82
2022/12/02 08:56:33;;;;;;;;;;;;;;;;;;5016047;28;20293;-82
2022/12/02 08:58:59;;;;;;;;;;;;;;;;;;5015719;28;20400;-81
2022/12/02 09:01:25;;;;;;;;;;;;;;;;;;5016139;28;19909;-79
2022/12/02 09:03:51;;;;;;;;;;;;;;;;;;5033807;28;19916;-82
2022/12/02 09:06:17;;;;;;;;;;;;;;;;;;5014971;28;20027;-83
2022/12/02 09:08:42;;;;;;;;;;;;;;;;;;5015085;28;19956;-81
2022/12/02 09:11:08;;;;;;;;;;;;;;;;;;5015172;28;20004;-80
2022/12/02 09:13:34;;;;;;;;;;;;;;;;;;5015449;28;19909;-82
2022/12/02 09:16:00;;;;;;;;;;;;;;;;;;5015718;28;20329;-82
2022/12/02 09:18:26;;;;;;;;;;;;;;;;;;5015613;28;20016;-82
2022/12/02 09:20:52;;;;;;;;;;;;;;;;;;5015595;28;19917;-82
2022/12/02 09:23:18;;;;;;;;;;;;;;;;;;5015458;28;20267;-79
2022/12/02 09:25:44;;;;;;;;;;;;;;;;;;5015737;28;20365;-80
2022/12/02 09:28:10;;;;;;;;;;;;;;;;;;5016097;28;19916;-79
2022/12/02 09:30:36;;;;;;;;;;;;;;;;;;5015455;28;19909;-78
2022/12/02 09:33:02;;;;;;;;;;;;;;;;;;5020422;28;20428;-77
2022/12/02 09:35:28;;;;;;;;;;;;;;;;;;5018675;28;20294;-80
2022/12/02 09:37:53;;;;;;;;;;;;;;;;;;5035895;28;19913;-79
2022/12/02 09:40:19;;;;;;;;;;;;;;;;;;5035815;28;19909;-79
2022/12/02 09:42:45;;;;;;;;;;;;;;;;;;5018151;28;19909;-77
2022/12/02 09:45:11;;;;;;;;;;;;;;;;;;5017844;28;19909;-79
2022/12/02 09:47:37;;;;;;;;;;;;;;;;;;5017845;28;19913;-77
2022/12/02 09:50:03;;;;;;;;;;;;;;;;;;5018274;28;20020;-77
2022/12/02 09:52:29;;;;;;;;;;;;;;;;;;5018210;28;19916;-78
2022/12/02 09:54:55;;;;;;;;;;;;;;;;;;5036130;28;20348;-77
2022/12/02 09:57:21;;;;;;;;;;;;;;;;;;5018048;28;19909;-78
2022/12/02 09:59:47;;;;;;;;;;;;;;;;;;5018621;28;19916;-78
2022/12/02 10:02:12;;;;;;;;;;;;;;;;;;5035134;28;19920;-79
2022/12/02 10:04:38;;;;;;;;;;;;;;;;;;5018120;28;19913;-80
2022/12/02 10:07:04;;;;;;;;;;;;;;;;;;5017828;28;20413;-80
2022/12/02 10:09:30;;;;;;;;;;;;;;;;;;5018490;28;19998;-80
2022/12/02 10:11:56;;;;;;;;;;;;;;;;;;5018133;28;19946;-80
2022/12/02 10:14:22;;;;;;;;;;;;;;;;;;5018419;28;20067;-78
2022/12/02 10:16:48;;;;;;;;;;;;;;;;;;5018300;28;20258;-78
2022/12/02 10:19:14;;;;;;;;;;;;;;;;;;5018356;28;20012;-79
2022/12/02 10:21:40;;;;;;;;;;;;;;;;;;5017820;28;19915;-77
2022/12/02 10:24:08;;;;;;;;;;;;;;;;;;5035719;28;19963;-78
2022/12/02 10:26:34;;;;;;;;;;;;;;;;;;5017410;28;19995;-79
2022/12/02 10:29:00;;;;;;;;;;;;;;;;;;5017437;28;20372;-77
2022/12/02 10:31:26;;;;;;;;;;;;;;;;;;5034903;28;19955;-78
2022/12/02 10:33:52;;;;;;;;;;;;;;;;;;5017188;28;19909;-79
2022/12/02 10:36:18;;;;;;;;;;;;;;;;;;5017185;28;20332;-79
2022/12/02 10:38:44;;;;;;;;;;;;;;;;;;5017197;28;19921;-77
2022/12/02 10:41:10;;;;;;;;;;;;;;;;;;5017165;28;19955;-78
2022/12/02 10:43:36;;;;;;;;;;;;;;;;;;5017510;28;19917;-79
2022/12/02 10:46:01;;;;;;;;;;;;;;;;;;5034792;28;19910;-83
2022/12/02 10:48:27;;;;;;;;;;;;;;;;;;5016728;28;19909;-79
2022/12/02 10:50:53;;;;;;;;;;;;;;;;;;5016915;28;20377;-77
2022/12/02 10:53:19;;;;;;;;;;;;;;;;;;5084603;23;19924;-77
2022/12/02 10:55:45;;;;;;;;;;;;;;;;;;5076001;28;19909;-77
2022/12/02 10:58:11;;;;;;;;;;;;;;;;;;5076251;28;19912;-76
2022/12/02 11:00:37;;;;;;;;;;;;;;;;;;5076684;28;19908;-75
2022/12/02 11:03:03;;;;;;;;;;;;;;;;;;5058221;28;19920;-75
2022/12/02 11:05:31;;;;;;;;;;;;;;;;;;5076648;28;19908;-74
2022/12/02 11:07:57;;;;;;;;;;;;;;;;;;5075731;28;20373;-75
2022/12/02 11:10:23;;;;;;;;;;;;;;;;;;5076797;28;19948;-77
2022/12/02 11:12:49;;;;;;;;;;;;;;;;;;5058526;28;19954;-77
2022/12/02 11:15:15;;;;;;;;;;;;;;;;;;5076149;28;19909;-77
2022/12/02 11:17:41;;;;;;;;;;;;;;;;;;5058033;28;19944;-77
2022/12/02 11:20:07;;;;;;;;;;;;;;;;;;5058258;28;19909;-77
2022/12/02 11:22:33;;;;;;;;;;;;;;;;;;5056533;28;20639;-76
2022/12/02 11:24:59;;;;;;;;;;;;;;;;;;5056648;28;19946;-76
2022/12/02 11:27:24;;;;;;;;;;;;;;;;;;5057622;28;20379;-77
2022/12/02 11:29:50;;;;;;;;;;;;;;;;;;5075160;28;20042;-77
2022/12/02 11:32:16;;;;;;;;;;;;;;;;;;5058175;28;20349;-77
2022/12/02 11:34:42;;;;;;;;;;;;;;;;;;5057676;28;19913;-76
2022/12/02 11:37:08;;;;;;;;;;;;;;;;;;5057748;28;19908;-77
2022/12/02 11:39:34;;;;;;;;;;;;;;;;;;5076063;28;20364;-77
2022/12/02 11:42:00;;;;;;;;;;;;;;;;;;5059071;28;19909;-76
2022/12/02 11:44:26;;;;;;;;;;;;;;;;;;5076132;28;20384;-77
2022/12/02 11:46:52;;;;;;;;;;;;;;;;;;5059073;28;20042;-77
2022/12/02 11:49:18;;;;;;;;;;;;;;;;;;5056875;28;19940;-76
2022/12/02 11:51:43;;;;;;;;;;;;;;;;;;5057821;28;20451;-77
2022/12/02 11:54:09;;;;;;;;;;;;;;;;;;5075195;28;19913;-76
2022/12/02 11:56:36;;;;;;;;;;;;;;;;;;5057366;28;19904;-75
2022/12/02 11:59:02;;;;;;;;;;;;;;;;;;5074790;28;20353;-77
2022/12/02 12:01:29;;;;;;;;;;;;;;;;;;5056666;28;19944;-78
2022/12/02 12:03:54;;;;;;;;;;;;;;;;;;5057281;28;19912;-76
2022/12/02 12:06:20;;;;;;;;;;;;;;;;;;5074520;28;19915;-77
2022/12/02 12:08:50;;;;;;;;;;;;;;;;;;5056702;28;19915;-77
2022/12/02 12:11:15;;;;;;;;;;;;;;;;;;5075645;28;19908;-76
2022/12/02 12:13:41;;;;;;;;;;;;;;;;;;5074820;28;19909;-77
2022/12/02 12:16:07;;;;;;;;;;;;;;;;;;5074622;28;19909;-77
2022/12/02 12:18:33;;;;;;;;;;;;;;;;;;5074444;28;20388;-77
2022/12/02 12:20:59;;;;;;;;;;;;;;;;;;5057371;28;20001;-75
2022/12/02 12:23:25;;;;;;;;;;;;;;;;;;5075920;28;20399;-75
2022/12/02 12:25:51;;;;;;;;;;;;;;;;;;5057488;28;19924;-77
2022/12/02 12:28:17;;;;;;;;;;;;;;;;;;5074449;28;20369;-77
2022/12/02 12:30:42;;;;;;;;;;;;;;;;;;5056190;28;19913;-76
2022/12/02 12:33:08;;;;;;;;;;;;;;;;;;5074069;28;20400;-77
2022/12/02 12:35:34;;;;;;;;;;;;;;;;;;5073780;28;19905;-82
2022/12/02 12:38:00;;;;;;;;;;;;;;;;;;5073958;28;20372;-76
2022/12/02 12:40:26;;;;;;;;;;;;;;;;;;5074656;28;19915;-77
2022/12/02 12:42:52;;;;;;;;;;;;;;;;;;5056419;28;20416;-77
2022/12/02 12:45:18;;;;;;;;;;;;;;;;;;5056147;28;19935;-77
2022/12/02 12:47:43;;;;;;;;;;;;;;;;;;5074491;28;20403;-77
2022/12/02 12:50:09;;;;;;;;;;;;;;;;;;5073563;28;19909;-78
2022/12/02 12:52:35;;;;;;;;;;;;;;;;;;5074107;28;20296;-77
2022/12/02 12:55:02;;;;;;;;;;;;;;;;;;5056633;28;20003;-77
2022/12/02 12:57:28;;;;;;;;;;;;;;;;;;5056106;28;19909;-77
2022/12/02 12:59:54;;;;;;;;;;;;;;;;;;5074462;28;19915;-78
2022/12/02 13:02:20;;;;;;;;;;;;;;;;;;5056009;28;19915;-78
2022/12/02 13:04:46;;;;;;;;;;;;;;;;;;5056544;28;19956;-77
2022/12/02 13:07:12;;;;;;;;;;;;;;;;;;5076476;28;19908;-77
2022/12/02 13:09:37;;;;;;;;;;;;;;;;;;5060445;28;19930;-78
2022/12/02 13:12:03;;;;;;;;;;;;;;;;;;5077735;28;20281;-77
2022/12/02 13:14:29;;;;;;;;;;;;;;;;;;5060146;28;19909;-78
2022/12/02 13:16:55;;;;;;;;;;;;;;;;;;5078041;28;20276;-77
2022/12/02 13:19:21;;;;;;;;;;;;;;;;;;5078189;28;20054;-76
2022/12/02 13:21:47;;;;;;;;;;;;;;;;;;5060650;28;19915;-75
2022/12/02 13:24:14;;;;;;;;;;;;;;;;;;5078641;28;19908;-77
2022/12/02 13:26:40;;;;;;;;;;;;;;;;;;5060203;28;19913;-77
2022/12/02 13:29:06;;;;;;;;;;;;;;;;;;5060125;28;19916;-77
2022/12/02 13:31:32;;;;;;;;;;;;;;;;;;5077810;28;19912;-77
2022/12/02 13:33:57;;;;;;;;;;;;;;;;;;5058860;28;19963;-77
2022/12/02 13:36:23;;;;;;;;;;;;;;;;;;5076970;28;19914;-76
2022/12/02 13:38:49;;;;;;;;;;;;;;;;;;5077107;28;19936;-77
2022/12/02 13:41:15;;;;;;;;;;;;;;;;;;5078438;28;19916;-78
2022/12/02 13:43:41;;;;;;;;;;;;;;;;;;5060803;28;19912;-77
2022/12/02 13:46:07;;;;;;;;;;;;;;;;;;5077484;28;19916;-77
2022/12/02 13:48:33;;;;;;;;;;;;;;;;;;5078041;28;19942;-77
2022/12/02 13:51:01;;;;;;;;;;;;;;;;;;5078715;28;19908;-77
2022/12/02 13:53:27;;;;;;;;;;;;;;;;;;5078419;28;20460;-76
2022/12/02 13:55:53;;;;;;;;;;;;;;;;;;5078411;28;19951;-77
2022/12/02 13:58:19;;;;;;;;;;;;;;;;;;5060167;28;19912;-77
2022/12/02 14:00:44;;;;;;;;;;;;;;;;;;5060152;28;19908;-77
2022/12/02 14:03:10;;;;;;;;;;;;;;;;;;5059653;28;19916;-76
2022/12/02 14:05:36;;;;;;;;;;;;;;;;;;5059657;28;20430;-77
2022/12/02 14:08:02;;;;;;;;;;;;;;;;;;5077680;28;19912;-77
2022/12/02 14:10:28;;;;;;;;;;;;;;;;;;5059502;28;19957;-78
2022/12/02 14:12:57;;;;;;;;;;;;;;;;;;5060089;28;20135;-78
2022/12/02 14:15:23;;;;;;;;;;;;;;;;;;5077776;28;19909;-77
2022/12/02 14:17:49;;;;;;;;;;;;;;;;;;5077238;28;20291;-77
2022/12/02 14:20:15;;;;;;;;;;;;;;;;;;5077569;28;19962;-76
2022/12/02 14:22:41;;;;;;;;;;;;;;;;;;5077748;28;20384;-76
2022/12/02 14:25:07;;;;;;;;;;;;;;;;;;5077852;28;19909;-78
2022/12/02 14:27:33;;;;;;;;;;;;;;;;;;5059660;28;20548;-78
2022/12/02 14:29:58;;;;;;;;;;;;;;;;;;5061036;28;19908;-77
2022/12/02 14:32:24;;;;;;;;;;;;;;;;;;5077422;28;19909;-77
2022/12/02 14:34:50;;;;;;;;;;;;;;;;;;5060061;28;19909;-78
2022/12/02 14:37:16;;;;;;;;;;;;;;;;;;5077216;28;19908;-77
2022/12/02 14:39:42;;;;;;;;;;;;;;;;;;5060929;28;19919;-78
2022/12/02 14:42:08;;;;;;;;;;;;;;;;;;5078850;28;19915;-77
2022/12/02 14:44:34;;;;;;;;;;;;;;;;;;5076870;28;19913;-76
2022/12/02 14:47:00;;;;;;;;;;;;;;;;;;5058391;28;20319;-77
2022/12/02 14:49:26;;;;;;;;;;;;;;;;;;5075890;28;19940;-77
2022/12/02 14:51:51;;;;;;;;;;;;;;;;;;5076017;28;20278;-78
2022/12/02 14:54:17;;;;;;;;;;;;;;;;;;5057738;28;19909;-77
2022/12/02 14:56:43;;;;;;;;;;;;;;;;;;5057669;28;19912;-79
2022/12/02 14:59:09;;;;;;;;;;;;;;;;;;5058427;28;19919;-77
2022/12/02 15:01:35;;;;;;;;;;;;;;;;;;5057870;28;19916;-77
2022/12/02 15:04:01;;;;;;;;;;;;;;;;;;5075333;28;20300;-77
2022/12/02 15:06:27;;;;;;;;;;;;;;;;;;5058528;28;20003;-76
2022/12/02 15:08:53;;;;;;;;;;;;;;;;;;5075360;28;20281;-76
2022/12/02 15:11:19;;;;;;;;;;;;;;;;;;5075411;28;19908;-77
2022/12/02 15:13:45;;;;;;;;;;;;;;;;;;5075142;28;19992;-76
2022/12/02 15:16:10;;;;;;;;;;;;;;;;;;5075262;28;20277;-77
2022/12/02 15:18:36;;;;;;;;;;;;;;;;;;5074866;28;19913;-77
2022/12/02 15:21:02;;;;;;;;;;;;;;;;;;5075390;28;19913;-76
2022/12/02 15:23:28;;;;;;;;;;;;;;;;;;5056356;28;20380;-76
2022/12/02 15:25:54;;;;;;;;;;;;;;;;;;5056734;28;19994;-76
2022/12/02 15:28:20;;;;;;;;;;;;;;;;;;5056329;28;20467;-76
2022/12/02 15:30:46;;;;;;;;;;;;;;;;;;5074923;28;19916;-79
2022/12/02 15:33:12;;;;;;;;;;;;;;;;;;5075917;28;19935;-75
2022/12/02 15:35:38;;;;;;;;;;;;;;;;;;5058411;28;19955;-76
2022/12/02 15:38:04;;;;;;;;;;;;;;;;;;5056866;28;19912;-75
2022/12/02 15:40:29;;;;;;;;;;;;;;;;;;5056925;28;19991;-75
2022/12/02 15:42:55;;;;;;;;;;;;;;;;;;5056452;28;19912;-74
2022/12/02 15:45:21;;;;;;;;;;;;;;;;;;5074536;28;19972;-75
2022/12/02 15:47:47;;;;;;;;;;;;;;;;;;5074777;28;19920;-77
2022/12/02 15:50:13;;;;;;;;;;;;;;;;;;5072788;28;19936;-76
2022/12/02 15:52:39;;;;;;;;;;;;;;;;;;5057131;28;19917;-76
2022/12/02 15:55:05;;;;;;;;;;;;;;;;;;5075266;28;20399;-76
2022/12/02 15:57:31;;;;;;;;;;;;;;;;;;5056758;28;19916;-75
2022/12/02 15:59:57;;;;;;;;;;;;;;;;;;5056569;28;20288;-77
2022/12/02 16:02:22;;;;;;;;;;;;;;;;;;5074468;28;19916;-75
2022/12/02 16:04:48;;;;;;;;;;;;;;;;;;5056594;28;19915;-76
2022/12/02 16:07:14;;;;;;;;;;;;;;;;;;5055473;28;20426;-75
2022/12/02 16:09:40;;;;;;;;;;;;;;;;;;5074391;28;19936;-76
2022/12/02 16:12:06;;;;;;;;;;;;;;;;;;5074027;28;20373;-76
2022/12/02 16:14:32;;;;;;;;;;;;;;;;;;5074115;28;19912;-75
2022/12/02 16:16:58;;;;;;;;;;;;;;;;;;5073796;28;20357;-75
2022/12/02 16:19:24;;;;;;;;;;;;;;;;;;5055783;28;19919;-76
2022/12/02 16:21:50;;;;;;;;;;;;;;;;;;5073596;28;19908;-75
2022/12/02 16:24:16;;;;;;;;;;;;;;;;;;5038553;28;20320;-78
2022/12/02 16:26:42;;;;;;;;;;;;;;;;;;5034982;28;20284;-77
2022/12/02 16:29:07;;;;;;;;;;;;;;;;;;5035390;28;19913;-78
2022/12/02 16:31:33;;;;;;;;;;;;;;;;;;5034941;28;20368;-75
2022/12/02 16:33:59;;;;;;;;;;;;;;;;;;5034745;28;19909;-75
2022/12/02 16:36:25;;;;;;;;;;;;;;;;;;5052962;28;19913;-74
2022/12/02 16:38:51;;;;;;;;;;;;;;;;;;5035306;28;20311;-76
2022/12/02 16:41:17;;;;;;;;;;;;;;;;;;5055632;28;19909;-76